Time;durP1;ratioP1;P1;durP2;ratioP2;P2;SDS_P1;SDS_P2;PMS_P1;PMS_P2;Temp;Humidity;BMP_temperature;BMP_pressure;BME280_temperature;BME280_humidity;BME280_pressure;Samples;Min_cycle;Max_cycle;Signal;HPM_P1;HPM_P2
2024/03/17 00:00:44;;;;;;;0.35;0.35;;;;;;;7.94;85.42;101524.00;5069334;28;20032;-66
2024/03/17 00:03:10;;;;;;;3.85;2.00;;;;;;;7.90;85.72;101520.34;5072392;28;20048;-66
2024/03/17 00:05:36;;;;;;;0.43;0.43;;;;;;;7.92;85.51;101526.19;5072882;28;20043;-67
2024/03/17 00:08:04;;;;;;;1.23;1.13;;;;;;;7.98;84.99;101522.25;5071329;28;20055;-66
2024/03/17 00:10:34;;;;;;;8.88;1.55;;;;;;;8.03;84.38;101522.13;5071088;28;20037;-66
2024/03/17 00:13:00;;;;;;;6.50;1.52;;;;;;;8.01;84.46;101522.41;5051557;28;20041;-66
2024/03/17 00:15:26;;;;;;;1.00;0.80;;;;;;;7.71;85.79;101536.75;5070560;28;20028;-66
2024/03/17 00:17:52;;;;;;;0.77;0.68;;;;;;;7.77;86.10;101530.13;5071711;28;20491;-67
2024/03/17 00:20:20;;;;;;;3.47;0.57;;;;;;;7.83;85.32;101533.47;5051701;28;20048;-66
2024/03/17 00:22:51;;;;;;;0.63;0.40;;;;;;;7.86;85.11;101541.66;5068728;28;20745;-66
2024/03/17 00:25:17;;;;;;;0.75;0.20;;;;;;;7.90;84.85;101544.50;5070072;28;20060;-65
2024/03/17 00:27:44;;;;;;;1.83;0.88;;;;;;;7.76;84.68;101546.53;5069152;28;20058;-66
2024/03/17 00:30:12;;;;;;;7.47;1.25;;;;;;;7.71;86.14;101552.84;5072321;28;20043;-67
2024/03/17 00:32:39;;;;;;;4.90;1.13;;;;;;;7.64;86.16;101546.34;5070414;28;20378;-67
2024/03/17 00:35:10;;;;;;;0.30;0.30;;;;;;;7.72;85.96;101553.63;5066405;28;20028;-67
2024/03/17 00:37:36;;;;;;;3.30;1.13;;;;;;;7.77;85.43;101545.44;5065336;28;20166;-68
2024/03/17 00:40:02;;;;;;;6.22;0.77;;;;;;;7.80;85.11;101545.59;5070454;28;20040;-67
2024/03/17 00:42:29;;;;;;;2.53;0.70;;;;;;;7.77;84.85;101537.38;5069143;28;20032;-65
2024/03/17 00:44:55;;;;;;;2.03;0.45;;;;;;;7.75;85.09;101555.69;5070389;28;20059;-67
2024/03/17 00:47:21;;;;;;;2.10;0.95;;;;;;;7.71;85.24;101552.84;5066191;28;20042;-65
2024/03/17 00:49:47;;;;;;;1.17;1.08;;;;;;;7.65;85.71;101550.59;5071873;28;20024;-66
2024/03/17 00:52:12;;;;;;;5.22;0.57;;;;;;;7.59;86.25;101560.69;5052786;28;20032;-66
2024/03/17 00:54:38;;;;;;;5.25;2.05;;;;;;;7.73;86.05;101560.56;5072949;28;20040;-66
2024/03/17 00:57:03;;;;;;;0.85;0.80;;;;;;;7.70;85.76;101559.31;5072141;28;20031;-67
2024/03/17 00:59:29;;;;;;;0.63;0.63;;;;;;;7.72;86.39;101559.78;5070453;28;20448;-66
2024/03/17 01:01:54;;;;;;;2.53;0.60;;;;;;;7.75;86.64;101561.03;5069568;28;20714;-65
2024/03/17 01:04:20;;;;;;;1.10;0.73;;;;;;;7.72;87.08;101559.78;5074274;28;20029;-68
2024/03/17 01:06:46;;;;;;;1.30;0.82;;;;;;;7.76;87.62;101566.06;5069116;28;20762;-65
2024/03/17 01:09:11;;;;;;;1.42;0.63;;;;;;;7.84;87.33;101564.53;5071057;28;20067;-65
2024/03/17 01:11:37;;;;;;;1.10;0.73;;;;;;;7.88;87.11;101565.47;5089566;28;20024;-67
2024/03/17 01:14:02;;;;;;;4.05;1.15;;;;;;;8.00;86.79;101558.41;5071773;28;20047;-68
2024/03/17 01:16:28;;;;;;;1.65;0.75;;;;;;;8.04;86.75;101567.41;5068820;28;20460;-65
2024/03/17 01:18:53;;;;;;;1.73;0.77;;;;;;;8.07;86.52;101561.38;5070556;28;20024;-68
2024/03/17 01:21:20;;;;;;;1.48;0.63;;;;;;;8.09;86.07;101563.78;5069436;28;20031;-67
2024/03/17 01:23:48;;;;;;;2.50;0.73;;;;;;;8.07;86.46;101557.94;5072887;28;20111;-65
2024/03/17 01:26:13;;;;;;;2.13;0.73;;;;;;;8.08;85.94;101565.66;5069354;28;20044;-66
2024/03/17 01:28:39;;;;;;;3.03;0.60;;;;;;;8.04;86.42;101566.59;5070085;28;20032;-68
2024/03/17 01:31:07;;;;;;;1.80;0.80;;;;;;;8.02;86.36;101564.22;5068423;28;20033;-66
2024/03/17 01:33:33;;;;;;;5.38;1.33;;;;;;;8.05;86.06;101568.19;5068724;28;20159;-64
2024/03/17 01:35:58;;;;;;;2.72;0.68;;;;;;;8.03;86.48;101563.13;5083625;28;20119;-66
2024/03/17 01:38:24;;;;;;;5.55;0.88;;;;;;;7.98;86.52;101557.91;5069715;28;20033;-68
2024/03/17 01:40:49;;;;;;;1.60;0.57;;;;;;;7.99;86.60;101561.41;5051353;28;20025;-67
2024/03/17 01:43:15;;;;;;;1.75;0.63;;;;;;;7.89;86.49;101567.84;5052921;28;20514;-67
2024/03/17 01:45:40;;;;;;;1.75;0.40;;;;;;;7.88;86.10;101568.16;5053906;28;20040;-66
2024/03/17 01:48:15;;;;;;;1.17;0.65;;;;;;;7.83;86.21;101568.31;5073911;28;20059;-66
2024/03/17 01:50:41;;;;;;;1.20;0.60;;;;;;;7.79;86.34;101564.66;5071194;28;20095;-66
2024/03/17 01:53:09;;;;;;;7.47;1.00;;;;;;;7.75;85.93;101571.75;5057608;28;20149;-66
2024/03/17 01:55:37;;;;;;;2.13;0.68;;;;;;;7.67;85.87;101570.66;5070319;28;20040;-69
2024/03/17 01:58:10;;;;;;;2.70;1.08;;;;;;;7.60;86.37;101573.00;5068535;28;20052;-66
2024/03/17 02:00:36;;;;;;;1.77;0.75;;;;;;;7.60;86.03;101570.31;5071190;28;20032;-66
2024/03/17 02:03:08;;;;;;;1.50;0.90;;;;;;;7.51;86.43;101564.13;5070635;28;20040;-66
2024/03/17 02:05:34;;;;;;;1.63;0.93;;;;;;;7.44;86.06;101573.72;5069999;28;20493;-65
2024/03/17 02:08:00;;;;;;;2.55;0.70;;;;;;;7.42;86.53;101562.53;5070391;28;20035;-65
2024/03/17 02:10:26;;;;;;;3.53;0.80;;;;;;;7.39;86.42;101565.84;5068067;28;20056;-65
2024/03/17 02:12:52;;;;;;;1.48;0.93;;;;;;;7.35;86.33;101564.88;5068241;28;20060;-69
2024/03/17 02:15:17;;;;;;;0.93;0.55;;;;;;;7.32;85.98;101569.75;5052007;28;20386;-66
2024/03/17 02:17:43;;;;;;;3.50;0.88;;;;;;;7.25;86.20;101561.38;5054429;28;20068;-72
2024/03/17 02:20:11;;;;;;;0.90;0.55;;;;;;;7.34;86.01;101566.75;5067804;28;20081;-69
2024/03/17 02:22:37;;;;;;;3.65;0.90;;;;;;;7.26;86.02;101567.50;5070878;28;20044;-68
2024/03/17 02:25:03;;;;;;;1.63;0.70;;;;;;;7.27;86.73;101563.75;5058042;28;20036;-67
2024/03/17 02:27:28;;;;;;;0.57;0.57;;;;;;;7.17;86.74;101569.38;5070396;28;20032;-63
2024/03/17 02:29:55;;;;;;;3.17;0.90;;;;;;;7.18;86.43;101569.06;5065467;28;20458;-64
2024/03/17 02:32:22;;;;;;;0.90;0.47;;;;;;;7.18;86.20;101579.00;5068840;28;20032;-65
2024/03/17 02:34:48;;;;;;;0.90;0.52;;;;;;;7.11;87.13;101576.75;5073366;28;20046;-63
2024/03/17 02:37:13;;;;;;;1.17;0.82;;;;;;;7.17;87.14;101569.38;5070357;28;20626;-67
2024/03/17 02:39:39;;;;;;;7.53;0.88;;;;;;;7.17;87.31;101572.84;5052637;28;20389;-64
2024/03/17 02:42:06;;;;;;;2.38;0.93;;;;;;;7.13;88.10;101571.88;5056822;28;20489;-64
2024/03/17 02:44:33;;;;;;;4.85;0.90;;;;;;;7.17;87.84;101572.84;5066684;28;20496;-65
2024/03/17 02:46:59;;;;;;;0.75;0.60;;;;;;;7.22;88.11;101577.25;5068729;28;20035;-64
2024/03/17 02:49:26;;;;;;;0.80;0.63;;;;;;;7.21;87.64;101573.03;5058269;28;20123;-63
2024/03/17 02:51:55;;;;;;;2.20;0.93;;;;;;;7.15;87.60;101576.94;5074400;28;20036;-68
2024/03/17 02:54:22;;;;;;;5.82;1.52;;;;;;;7.09;87.41;101576.28;5070026;28;20047;-63
2024/03/17 02:56:51;;;;;;;1.35;0.65;;;;;;;7.08;87.20;101582.72;5071108;28;20115;-63
2024/03/17 02:59:16;;;;;;;1.60;1.08;;;;;;;6.92;87.31;101583.44;5069247;28;20032;-67
2024/03/17 03:01:43;;;;;;;1.73;1.02;;;;;;;6.99;86.96;101579.22;5066816;28;20043;-63
2024/03/17 03:04:08;;;;;;;5.68;0.82;;;;;;;7.01;86.92;101585.06;5070067;28;20570;-63
2024/03/17 03:06:34;;;;;;;1.98;0.60;;;;;;;7.05;86.14;101577.19;5068602;28;20032;-66
2024/03/17 03:08:59;;;;;;;2.47;0.60;;;;;;;6.94;85.90;101565.19;5051507;28;20028;-64
2024/03/17 03:11:25;;;;;;;2.67;1.00;;;;;;;6.85;87.00;101575.06;5067475;28;20028;-65
2024/03/17 03:13:51;;;;;;;4.93;0.50;;;;;;;6.89;86.26;101571.44;5069556;28;20040;-64
2024/03/17 03:16:18;;;;;;;0.45;0.45;;;;;;;6.76;86.76;101574.19;5074903;28;20513;-63
2024/03/17 03:18:44;;;;;;;0.70;0.55;;;;;;;6.73;86.82;101574.81;5072953;28;20028;-70
2024/03/17 03:21:10;;;;;;;1.98;0.70;;;;;;;6.65;87.25;101579.03;5054393;28;20044;-64
2024/03/17 03:23:36;;;;;;;0.60;0.57;;;;;;;6.58;87.19;101567.94;5072324;28;20032;-65
2024/03/17 03:26:03;;;;;;;6.07;0.60;;;;;;;6.59;87.10;101574.09;5071620;28;20074;-66
2024/03/17 03:28:31;;;;;;;2.95;0.65;;;;;;;6.54;86.95;101571.56;5068765;28;20068;-63
2024/03/17 03:30:56;;;;;;;2.65;0.88;;;;;;;6.57;87.19;101571.72;5074848;28;20464;-63
2024/03/17 03:33:22;;;;;;;2.40;0.65;;;;;;;6.56;86.52;101583.53;5058183;28;20124;-66
2024/03/17 03:35:47;;;;;;;2.75;1.23;;;;;;;6.50;86.91;101573.25;5073467;28;20040;-63
2024/03/17 03:38:14;;;;;;;2.90;0.82;;;;;;;6.40;87.55;101576.97;5057643;28;20552;-63
2024/03/17 03:40:41;;;;;;;0.88;0.70;;;;;;;6.35;87.55;101583.22;5071981;28;20035;-64
2024/03/17 03:43:07;;;;;;;1.85;1.00;;;;;;;6.37;86.53;101582.91;5054468;28;20390;-63
2024/03/17 03:45:34;;;;;;;2.60;1.02;;;;;;;6.35;86.75;101590.44;5058823;28;20047;-65
2024/03/17 03:47:59;;;;;;;1.70;0.98;;;;;;;6.31;87.04;101592.13;5071499;28;20036;-62
2024/03/17 03:50:24;;;;;;;2.88;0.95;;;;;;;6.27;86.98;101589.28;5056134;28;20032;-65
2024/03/17 03:52:50;;;;;;;1.83;0.55;;;;;;;6.31;86.74;101590.25;5075871;28;20468;-63
2024/03/17 03:55:17;;;;;;;2.85;0.90;;;;;;;6.27;87.15;101585.84;5073966;28;20098;-64
2024/03/17 03:57:46;;;;;;;0.73;0.70;;;;;;;6.20;86.99;101582.78;5072782;28;20028;-66
2024/03/17 04:00:12;;;;;;;2.83;0.88;;;;;;;6.19;88.03;101583.88;5070030;28;20039;-64
2024/03/17 04:02:42;;;;;;;2.20;0.85;;;;;;;6.22;87.07;101577.91;5072715;28;20482;-65
2024/03/17 04:05:09;;;;;;;10.20;1.27;;;;;;;6.28;85.40;101576.72;5070793;28;20024;-65
2024/03/17 04:07:35;;;;;;;0.82;0.80;;;;;;;6.14;86.56;101575.94;5072337;28;20197;-68
2024/03/17 04:10:02;;;;;;;1.98;0.90;;;;;;;6.17;86.07;101580.72;5071378;28;20035;-65
2024/03/17 04:12:27;;;;;;;3.10;1.20;;;;;;;6.13;85.80;101585.09;5070627;28;20397;-65
2024/03/17 04:14:53;;;;;;;1.15;1.08;;;;;;;6.02;86.43;101586.41;5071132;28;20040;-65
2024/03/17 04:17:21;;;;;;;1.40;1.25;;;;;;;6.08;86.56;101583.31;5071814;28;20032;-65
2024/03/17 04:19:50;;;;;;;1.30;0.85;;;;;;;6.01;86.16;101590.94;5070201;28;20041;-65
2024/03/17 04:22:16;;;;;;;0.65;0.63;;;;;;;5.86;87.43;101590.50;5067495;28;20024;-64
2024/03/17 04:24:43;;;;;;;5.63;1.40;;;;;;;5.87;87.62;101590.19;5074143;28;20546;-65
2024/03/17 04:27:09;;;;;;;1.67;1.02;;;;;;;5.89;86.69;101596.03;5064502;28;20039;-66
2024/03/17 04:29:34;;;;;;;0.88;0.65;;;;;;;5.87;86.89;101595.53;5070678;28;20036;-65
2024/03/17 04:32:04;;;;;;;5.25;1.27;;;;;;;5.89;86.74;101592.56;5073564;28;20036;-67
2024/03/17 04:34:31;;;;;;;3.22;0.75;;;;;;;5.89;86.80;101589.88;5069615;28;20039;-65
2024/03/17 04:36:57;;;;;;;2.97;1.23;;;;;;;6.01;85.75;101592.81;5070433;28;20501;-65
2024/03/17 04:39:23;;;;;;;2.35;0.82;;;;;;;5.94;86.54;101595.91;5073400;28;20040;-66
2024/03/17 04:41:49;;;;;;;1.20;1.00;;;;;;;5.94;87.36;101584.44;5070908;28;20047;-67
2024/03/17 04:44:16;;;;;;;1.15;0.93;;;;;;;5.92;88.56;101602.66;5069849;28;20041;-66
2024/03/17 04:46:41;;;;;;;1.67;1.05;;;;;;;5.88;89.92;101599.00;5071332;28;20083;-65
2024/03/17 04:49:08;;;;;;;4.65;1.17;;;;;;;5.92;90.65;101586.63;5071136;28;20118;-65
2024/03/17 04:51:33;;;;;;;6.70;1.13;;;;;;;6.03;90.96;101590.66;5068935;28;20071;-65
2024/03/17 04:53:59;;;;;;;5.45;1.48;;;;;;;6.18;90.58;101579.59;5071879;28;20059;-64
2024/03/17 04:56:25;;;;;;;10.55;1.23;;;;;;;6.27;90.45;101586.59;5071886;28;20481;-66
2024/03/17 04:58:50;;;;;;;2.35;0.95;;;;;;;6.26;91.00;101593.06;5054919;28;20036;-65
2024/03/17 05:01:16;;;;;;;1.23;1.13;;;;;;;6.28;90.48;101608.81;5070362;28;20032;-65
2024/03/17 05:03:41;;;;;;;3.28;1.58;;;;;;;6.31;90.88;101600.97;5071410;28;20077;-65
2024/03/17 05:06:07;;;;;;;2.30;1.15;;;;;;;6.31;90.90;101605.50;5071408;28;20105;-67
2024/03/17 05:08:34;;;;;;;2.28;1.08;;;;;;;6.25;90.50;101612.84;5074637;28;20033;-64
2024/03/17 05:11:04;;;;;;;4.10;1.00;;;;;;;6.26;90.18;101611.78;5071939;28;20058;-67
2024/03/17 05:13:31;;;;;;;2.33;1.13;;;;;;;6.22;89.66;101616.16;5066329;28;20392;-65
2024/03/17 05:15:57;;;;;;;5.70;1.92;;;;;;;6.16;89.88;101622.69;5079044;28;20280;-68
2024/03/17 05:18:25;;;;;;;2.90;1.17;;;;;;;6.16;90.18;101619.22;5072883;28;20032;-64
2024/03/17 05:20:59;;;;;;;8.77;1.73;;;;;;;6.16;89.94;101624.56;5054334;28;20024;-65
2024/03/17 05:23:26;;;;;;;1.73;1.48;;;;;;;6.21;90.22;101627.16;5071960;28;20398;-67
2024/03/17 05:25:52;;;;;;;2.95;0.95;;;;;;;6.21;88.55;101627.91;5074838;28;20034;-65
2024/03/17 05:28:17;;;;;;;1.08;0.95;;;;;;;6.16;89.38;101633.41;5072318;28;20033;-64
2024/03/17 05:30:43;;;;;;;9.10;1.05;;;;;;;6.07;89.26;101631.72;5069372;28;20607;-65
2024/03/17 05:33:09;;;;;;;1.38;1.10;;;;;;;6.01;90.51;101635.59;5075998;28;20028;-65
2024/03/17 05:35:35;;;;;;;2.38;1.17;;;;;;;5.97;90.65;101643.44;5063640;28;20089;-65
2024/03/17 05:38:00;;;;;;;2.42;1.50;;;;;;;6.04;90.61;101643.03;5072515;28;20424;-66
2024/03/17 05:40:26;;;;;;;1.95;1.10;;;;;;;5.95;90.66;101645.63;5073854;28;21396;-66
2024/03/17 05:42:51;;;;;;;2.25;0.88;;;;;;;6.07;89.79;101637.06;5054688;28;20035;-65
2024/03/17 05:45:17;;;;;;;2.30;1.38;;;;;;;6.04;89.53;101629.66;5070034;28;20565;-66
2024/03/17 05:47:43;;;;;;;1.58;1.15;;;;;;;6.05;89.38;101636.59;5054268;28;20028;-67
2024/03/17 05:50:09;;;;;;;2.97;1.55;;;;;;;6.02;89.13;101634.53;5070772;28;20025;-65
2024/03/17 05:52:36;;;;;;;1.60;1.08;;;;;;;5.90;89.53;101651.06;5072041;28;20058;-65
2024/03/17 05:55:02;;;;;;;1.23;0.95;;;;;;;5.98;90.33;101650.34;5071170;28;20028;-68
2024/03/17 05:57:28;;;;;;;3.38;1.10;;;;;;;5.96;89.58;101641.06;5071459;28;20416;-67
2024/03/17 05:59:53;;;;;;;9.02;1.52;;;;;;;5.92;89.78;101651.53;5066655;28;20490;-66
2024/03/17 06:02:18;;;;;;;1.38;1.05;;;;;;;5.95;89.37;101650.16;5067419;28;20040;-65
2024/03/17 06:04:44;;;;;;;3.05;1.33;;;;;;;5.98;89.58;101666.38;5052862;28;20574;-64
2024/03/17 06:07:10;;;;;;;6.75;1.42;;;;;;;5.96;89.65;101657.88;5069432;28;20027;-65
2024/03/17 06:09:35;;;;;;;2.38;1.00;;;;;;;5.89;89.51;101664.72;5086262;28;20108;-67
2024/03/17 06:12:01;;;;;;;0.93;0.85;;;;;;;5.89;89.52;101665.50;5073245;28;20036;-65
2024/03/17 06:14:26;;;;;;;5.45;1.98;;;;;;;5.99;89.84;101667.19;5069246;28;20043;-64
2024/03/17 06:16:52;;;;;;;2.05;1.27;;;;;;;5.96;90.04;101673.13;5072525;28;20028;-64
2024/03/17 06:19:17;;;;;;;1.52;1.42;;;;;;;6.00;89.92;101661.53;5069337;28;20181;-65
2024/03/17 06:21:42;;;;;;;3.20;1.13;;;;;;;6.01;90.60;101663.13;5055046;28;20025;-65
2024/03/17 06:24:08;;;;;;;2.30;1.67;;;;;;;6.08;89.58;101660.84;5051521;28;20036;-65
2024/03/17 06:26:34;;;;;;;2.05;1.20;;;;;;;6.08;89.95;101670.72;5053259;28;20036;-65
2024/03/17 06:29:03;;;;;;;3.70;1.65;;;;;;;6.15;90.04;101660.44;5068966;28;20032;-64
2024/03/17 06:31:28;;;;;;;3.38;1.20;;;;;;;6.14;90.61;101653.50;5065609;28;20048;-66
2024/03/17 06:33:53;;;;;;;2.03;1.50;;;;;;;6.16;90.93;101662.81;5068152;28;20032;-65
2024/03/17 06:36:19;;;;;;;3.00;1.60;;;;;;;6.25;90.57;101669.03;5070606;28;20497;-64
2024/03/17 06:38:45;;;;;;;5.18;1.52;;;;;;;6.25;90.88;101668.25;5051436;28;20405;-65
2024/03/17 06:41:10;;;;;;;2.00;1.35;;;;;;;6.25;90.94;101661.00;5065734;28;20182;-65
2024/03/17 06:43:35;;;;;;;1.13;0.98;;;;;;;6.27;91.05;101671.41;5070257;28;20509;-64
2024/03/17 06:46:01;;;;;;;1.58;1.35;;;;;;;6.34;91.69;101674.47;5054245;28;20025;-66
2024/03/17 06:48:28;;;;;;;1.27;1.15;;;;;;;6.43;92.07;101685.25;5070675;28;20035;-66
2024/03/17 06:50:54;;;;;;;5.68;1.65;;;;;;;6.47;92.76;101687.00;5054940;28;20040;-66
2024/03/17 06:53:26;;;;;;;2.38;1.42;;;;;;;6.56;93.23;101679.88;5074914;28;20028;-66
2024/03/17 06:55:59;;;;;;;2.55;1.83;;;;;;;6.66;93.23;101682.28;5068551;28;20050;-66
2024/03/17 06:58:27;;;;;;;1.40;1.30;;;;;;;6.73;93.53;101695.25;5075604;28;20093;-66
2024/03/17 07:00:54;;;;;;;8.68;1.40;;;;;;;6.79;93.57;101686.81;5076730;28;20092;-65
2024/03/17 07:03:20;;;;;;;2.67;1.02;;;;;;;6.88;93.40;101689.53;5070699;28;20082;-65
2024/03/17 07:06:05;;;;;;;4.82;1.40;;;;;;;6.99;93.42;101691.69;5074636;28;20124;-66
2024/03/17 07:08:31;;;;;;;8.43;1.75;;;;;;;7.10;94.22;101684.97;5073984;28;20043;-66
2024/03/17 07:11:02;;;;;;;3.33;1.60;;;;;;;7.24;93.97;101699.09;5055954;28;20037;-65
2024/03/17 07:13:33;;;;;;;4.65;1.17;;;;;;;7.38;93.98;101699.00;5072326;28;20063;-64
2024/03/17 07:16:06;;;;;;;1.87;1.53;;;;;;;7.48;93.25;101697.94;5071115;28;20089;-65
2024/03/17 07:18:32;;;;;;;5.35;1.42;;;;;;;7.59;93.17;101697.38;5088751;28;20040;-65
2024/03/17 07:20:59;;;;;;;1.80;1.05;;;;;;;7.71;92.74;101704.84;5071651;28;20077;-68
2024/03/17 07:23:25;;;;;;;2.35;1.00;;;;;;;7.79;92.54;101696.03;5073003;28;20112;-65
2024/03/17 07:25:52;;;;;;;5.60;1.00;;;;;;;7.93;91.73;101692.16;5074877;28;20028;-65
2024/03/17 07:28:18;;;;;;;1.98;1.75;;;;;;;8.06;91.81;101693.94;5073862;28;20055;-65
2024/03/17 07:30:50;;;;;;;2.28;1.50;;;;;;;8.19;91.52;101698.38;5068436;28;20830;-67
2024/03/17 07:33:16;;;;;;;3.05;1.48;;;;;;;8.37;91.57;101693.84;5074510;28;20409;-64
2024/03/17 07:35:47;;;;;;;4.55;1.23;;;;;;;8.63;90.60;101699.25;5062143;28;20028;-65
2024/03/17 07:38:14;;;;;;;1.48;1.02;;;;;;;8.85;89.98;101704.47;5073995;28;20087;-65
2024/03/17 07:40:39;;;;;;;1.38;1.02;;;;;;;9.08;88.65;101698.59;5071337;28;20115;-64
2024/03/17 07:43:05;;;;;;;3.15;0.57;;;;;;;9.41;85.95;101700.72;5074292;28;20566;-65
2024/03/17 07:45:30;;;;;;;5.03;1.05;;;;;;;9.66;83.54;101697.16;5072368;28;20521;-65
2024/03/17 07:47:56;;;;;;;4.20;0.80;;;;;;;9.83;82.12;101703.25;5062218;28;20063;-68
2024/03/17 07:50:22;;;;;;;3.92;0.98;;;;;;;10.13;80.12;101701.41;5074330;28;20409;-64
2024/03/17 07:52:47;;;;;;;1.40;0.80;;;;;;;10.45;78.65;101698.03;5090404;28;20031;-64
2024/03/17 07:55:12;;;;;;;11.25;1.45;;;;;;;10.72;77.45;101692.13;5074739;28;20450;-64
2024/03/17 07:57:38;;;;;;;4.43;0.98;;;;;;;10.95;76.11;101705.25;5075034;28;20024;-65
2024/03/17 08:00:09;;;;;;;0.43;0.32;;;;;;;11.20;73.44;101710.41;5072450;28;20378;-65
2024/03/17 08:02:35;;;;;;;2.47;0.85;;;;;;;11.46;71.42;101710.13;5086014;28;20151;-65
2024/03/17 08:05:00;;;;;;;4.60;0.98;;;;;;;11.58;70.78;101712.84;5071269;28;20756;-64
2024/03/17 08:07:26;;;;;;;5.90;1.00;;;;;;;11.71;69.35;101715.25;5075084;28;20035;-65
2024/03/17 08:09:51;;;;;;;0.88;0.38;;;;;;;11.92;67.53;101712.47;5087706;28;20397;-64
2024/03/17 08:12:17;;;;;;;3.38;0.70;;;;;;;11.92;65.46;101717.06;5072169;28;20063;-63
2024/03/17 08:14:43;;;;;;;3.80;0.90;;;;;;;12.08;63.25;101716.06;5073443;28;20036;-65
2024/03/17 08:17:09;;;;;;;2.15;0.75;;;;;;;12.32;61.57;101716.03;5055315;28;20032;-65
2024/03/17 08:19:34;;;;;;;5.10;1.00;;;;;;;12.56;61.64;101710.56;5071108;28;20028;-64
2024/03/17 08:22:00;;;;;;;2.13;0.85;;;;;;;12.63;61.93;101716.22;5073114;28;20051;-63
2024/03/17 08:24:25;;;;;;;3.00;1.08;;;;;;;12.84;59.57;101707.91;5061632;28;20060;-66
2024/03/17 08:26:51;;;;;;;3.58;1.35;;;;;;;13.04;58.94;101706.97;5070428;28;20038;-67
2024/03/17 08:29:16;;;;;;;2.55;0.98;;;;;;;13.16;58.77;101701.47;5074709;28;20654;-67
2024/03/17 08:31:42;;;;;;;2.05;0.52;;;;;;;13.27;55.10;101705.28;5071191;28;20052;-65
2024/03/17 08:34:07;;;;;;;0.50;0.40;;;;;;;13.30;53.19;101703.78;5075567;28;20038;-65
2024/03/17 08:36:33;;;;;;;6.43;0.65;;;;;;;13.39;54.24;101707.88;5071022;28;20405;-68
2024/03/17 08:38:58;;;;;;;6.35;0.60;;;;;;;13.66;54.15;101717.09;5070522;28;20464;-64
2024/03/17 08:41:24;;;;;;;4.50;0.73;;;;;;;13.75;53.03;101712.28;5071258;28;20032;-65
2024/03/17 08:43:49;;;;;;;8.95;0.73;;;;;;;13.93;52.57;101718.94;5070697;28;20033;-65
2024/03/17 08:46:15;;;;;;;4.80;0.85;;;;;;;14.05;51.33;101720.75;5070494;28;20040;-66
2024/03/17 08:48:44;;;;;;;2.15;0.35;;;;;;;14.20;50.69;101718.03;5073636;28;20036;-64
2024/03/17 08:51:10;;;;;;;9.90;0.80;;;;;;;14.30;50.56;101722.91;5069538;28;20024;-64
2024/03/17 08:53:38;;;;;;;0.98;0.43;;;;;;;14.56;48.84;101726.94;5058132;28;20028;-64
2024/03/17 08:56:06;;;;;;;4.78;0.52;;;;;;;14.63;48.39;101721.69;5073745;28;20115;-64
2024/03/17 08:58:32;;;;;;;4.68;1.05;;;;;;;14.65;49.23;101716.69;5053205;28;20028;-68
2024/03/17 09:00:57;;;;;;;3.60;0.60;;;;;;;14.48;49.26;101708.97;5071387;28;20119;-65
2024/03/17 09:03:24;;;;;;;3.80;0.22;;;;;;;14.40;49.74;101711.53;5070520;28;20079;-64
2024/03/17 09:05:50;;;;;;;8.13;0.75;;;;;;;14.52;50.08;101709.84;5056540;28;20093;-63
2024/03/17 09:08:17;;;;;;;4.85;0.45;;;;;;;14.65;49.27;101706.66;5067444;28;20067;-64
2024/03/17 09:10:44;;;;;;;0.52;0.38;;;;;;;14.81;47.40;101701.13;5052011;28;20040;-65
2024/03/17 09:13:17;;;;;;;0.95;0.85;;;;;;;14.92;48.33;101705.66;5075924;28;20033;-65
2024/03/17 09:15:56;;;;;;;5.95;1.15;;;;;;;14.78;48.64;101696.44;5076381;28;20029;-66
2024/03/17 09:18:22;;;;;;;0.60;0.13;;;;;;;14.56;47.34;101703.34;5088232;28;20450;-64
2024/03/17 09:21:08;;;;;;;1.75;0.55;;;;;;;14.61;49.68;101707.69;5073576;28;20409;-64
2024/03/17 09:23:34;;;;;;;1.25;0.30;;;;;;;14.54;48.91;101702.91;5069107;28;20048;-64
2024/03/17 09:26:11;;;;;;;1.23;0.28;;;;;;;14.48;49.72;101713.25;5073247;28;20044;-65
2024/03/17 09:28:37;;;;;;;0.80;0.57;;;;;;;14.67;50.48;101709.78;5071796;28;20032;-67
2024/03/17 09:31:06;;;;;;;2.53;0.10;;;;;;;14.93;49.11;101711.84;5068207;28;20048;-68
2024/03/17 09:33:32;;;;;;;6.93;0.90;;;;;;;15.21;48.18;101717.81;5056743;28;20028;-64
2024/03/17 09:36:07;;;;;;;5.10;1.02;;;;;;;15.07;48.52;101715.63;5071761;28;20073;-65
2024/03/17 09:38:35;;;;;;;2.05;0.50;;;;;;;15.00;47.82;101717.41;5073337;28;20036;-65
2024/03/17 09:41:01;;;;;;;1.00;0.22;;;;;;;15.40;47.58;101717.78;5072743;28;20027;-66
2024/03/17 09:43:33;;;;;;;5.15;0.85;;;;;;;15.90;46.04;101722.94;5071472;28;20600;-65
2024/03/17 09:45:59;;;;;;;9.25;0.65;;;;;;;16.39;45.41;101730.28;5070249;28;20485;-64
2024/03/17 09:48:27;;;;;;;3.17;0.77;;;;;;;16.58;44.16;101738.31;5071656;28;20034;-66
2024/03/17 09:51:00;;;;;;;0.40;0.30;;;;;;;16.58;44.37;101732.88;5070938;28;20035;-65
2024/03/17 09:53:31;;;;;;;1.50;0.32;;;;;;;16.43;42.27;101731.91;5067019;28;20052;-65
2024/03/17 09:56:15;;;;;;;5.35;0.95;;;;;;;16.20;42.68;101731.94;5088756;28;20111;-65
2024/03/17 09:58:42;;;;;;;1.08;0.32;;;;;;;15.94;44.01;101729.22;5072073;28;20032;-69
2024/03/17 10:01:08;;;;;;;1.55;0.40;;;;;;;15.78;44.45;101734.00;5073131;28;20060;-65
2024/03/17 10:03:51;;;;;;;2.33;0.50;;;;;;;15.66;44.75;101728.72;5072051;28;20059;-67
2024/03/17 10:06:20;;;;;;;1.15;0.32;;;;;;;15.44;43.21;101736.88;5068242;28;20064;-64
2024/03/17 10:08:54;;;;;;;8.90;1.00;;;;;;;15.03;45.05;101736.47;5069901;28;20487;-65
2024/03/17 10:11:32;;;;;;;2.42;0.52;;;;;;;14.75;46.35;101743.25;5072942;28;20036;-67
2024/03/17 10:14:00;;;;;;;0.75;0.20;;;;;;;14.54;46.42;101740.84;5077974;28;20028;-65
2024/03/17 10:16:29;;;;;;;2.45;0.52;;;;;;;14.15;48.11;101729.13;5075406;28;20115;-65
2024/03/17 10:19:10;;;;;;;1.85;0.45;;;;;;;14.26;48.65;101732.88;5081495;28;20040;-66
2024/03/17 10:21:40;;;;;;;2.35;0.57;;;;;;;14.45;48.61;101735.66;5085595;28;20115;-65
2024/03/17 10:24:10;;;;;;;4.13;0.75;;;;;;;14.52;46.86;101742.38;5090161;28;20413;-65
2024/03/17 10:26:53;;;;;;;5.97;0.68;;;;;;;14.33;48.22;101741.19;5071627;28;20035;-66
2024/03/17 10:29:31;;;;;;;7.18;0.50;;;;;;;14.12;47.22;101745.28;5078107;28;20047;-64
2024/03/17 10:32:18;;;;;;;3.03;1.05;;;;;;;14.02;48.84;101741.19;5074581;28;20115;-65
2024/03/17 10:34:44;;;;;;;2.17;0.47;;;;;;;14.15;48.41;101739.94;5054852;28;20051;-65
2024/03/17 10:37:25;;;;;;;2.97;0.85;;;;;;;14.24;47.59;101751.41;5072259;28;20114;-64
2024/03/17 10:39:55;;;;;;;1.05;0.43;;;;;;;14.43;46.29;101746.06;5070794;28;20068;-65
2024/03/17 10:42:28;;;;;;;4.43;0.28;;;;;;;14.50;45.90;101748.13;5072598;28;20119;-64
2024/03/17 10:44:55;;;;;;;0.38;0.35;;;;;;;14.41;46.28;101752.97;5080170;28;20528;-65
2024/03/17 10:47:23;;;;;;;1.35;0.60;;;;;;;14.25;46.48;101742.13;5084626;28;20044;-64
2024/03/17 10:49:51;;;;;;;3.10;0.55;;;;;;;14.16;45.99;101749.66;5073746;28;20032;-65
2024/03/17 10:52:17;;;;;;;1.65;0.40;;;;;;;13.99;45.84;101743.81;5070644;28;20044;-65
2024/03/17 10:54:52;;;;;;;0.98;0.73;;;;;;;14.03;46.01;101745.47;5072291;28;20409;-66
2024/03/17 10:57:35;;;;;;;5.95;0.57;;;;;;;14.01;47.17;101734.22;5054001;28;20144;-64
2024/03/17 11:00:05;;;;;;;1.30;0.30;;;;;;;14.14;46.55;101740.31;5083320;28;20040;-65
2024/03/17 11:02:38;;;;;;;4.68;0.30;;;;;;;14.19;46.92;101735.41;5076673;28;21129;-65
2024/03/17 11:05:21;;;;;;;2.67;0.90;;;;;;;14.36;46.40;101731.56;5067122;28;20146;-65
2024/03/17 11:07:49;;;;;;;4.18;0.57;;;;;;;14.43;47.06;101726.28;5055834;28;20100;-65
2024/03/17 11:10:20;;;;;;;0.98;0.28;;;;;;;14.50;45.85;101731.09;5065470;28;20028;-65
2024/03/17 11:12:55;;;;;;;1.55;0.30;;;;;;;14.53;45.31;101735.78;5088260;28;20041;-65
2024/03/17 11:15:58;;;;;;;3.65;0.65;;;;;;;14.51;45.28;101735.38;5074113;28;20044;-65
2024/03/17 11:18:19;;;;;;;0.88;0.82;;;;;;;14.35;44.27;101729.97;5070914;28;20052;-66
2024/03/17 11:20:59;;;;;;;1.23;0.45;;;;;;;14.30;43.80;101728.31;5064998;28;20398;-65
2024/03/17 11:23:32;;;;;;;0.65;0.45;;;;;;;14.25;43.51;101731.28;5068678;28;20044;-65
2024/03/17 11:25:58;;;;;;;4.25;0.60;;;;;;;13.82;44.51;101728.69;5068055;28;20043;-65
2024/03/17 11:28:42;;;;;;;3.65;0.40;;;;;;;14.09;44.74;101733.22;5067369;28;20475;-65
2024/03/17 11:31:40;;;;;;;2.55;0.40;;;;;;;14.09;45.19;101738.66;5063002;28;20032;-65
2024/03/17 11:34:34;;;;;;;3.72;0.45;;;;;;;14.28;44.20;101738.75;5053214;28;20043;-65